sensor_id;sensor_type;location;lat;lon;timestamp;P1;durP1;ratioP1;P2;durP2;ratioP2
13439;SDS011;6792;57.698;11.946;2023-11-21T00:01:11;8.17;;;5.43;;
13439;SDS011;6792;57.698;11.946;2023-11-21T00:03:40;7.53;;;5.00;;
13439;SDS011;6792;57.698;11.946;2023-11-21T00:06:10;9.90;;;5.20;;
13439;SDS011;6792;57.698;11.946;2023-11-21T00:08:39;7.60;;;5.17;;
13439;SDS011;6792;57.698;11.946;2023-11-21T00:11:08;9.20;;;5.23;;
13439;SDS011;6792;57.698;11.946;2023-11-21T00:13:37;7.10;;;4.60;;
13439;SDS011;6792;57.698;11.946;2023-11-21T00:16:07;8.30;;;5.67;;
13439;SDS011;6792;57.698;11.946;2023-11-21T00:18:36;7.80;;;5.10;;
13439;SDS011;6792;57.698;11.946;2023-11-21T00:21:06;6.73;;;5.13;;
13439;SDS011;6792;57.698;11.946;2023-11-21T00:23:35;7.57;;;5.03;;
13439;SDS011;6792;57.698;11.946;2023-11-21T00:26:04;7.03;;;5.27;;
13439;SDS011;6792;57.698;11.946;2023-11-21T00:28:34;6.83;;;4.90;;
13439;SDS011;6792;57.698;11.946;2023-11-21T00:31:03;8.87;;;4.97;;
13439;SDS011;6792;57.698;11.946;2023-11-21T00:33:33;7.93;;;5.10;;
13439;SDS011;6792;57.698;11.946;2023-11-21T00:36:02;7.17;;;5.17;;
13439;SDS011;6792;57.698;11.946;2023-11-21T00:38:34;7.27;;;5.20;;
13439;SDS011;6792;57.698;11.946;2023-11-21T00:41:05;7.13;;;4.97;;
13439;SDS011;6792;57.698;11.946;2023-11-21T00:43:34;9.10;;;5.80;;
13439;SDS011;6792;57.698;11.946;2023-11-21T00:46:04;7.13;;;5.23;;
13439;SDS011;6792;57.698;11.946;2023-11-21T00:48:34;9.17;;;5.53;;
13439;SDS011;6792;57.698;11.946;2023-11-21T00:51:04;6.47;;;4.93;;
13439;SDS011;6792;57.698;11.946;2023-11-21T00:53:33;6.77;;;5.37;;
13439;SDS011;6792;57.698;11.946;2023-11-21T00:56:03;6.60;;;5.03;;
13439;SDS011;6792;57.698;11.946;2023-11-21T00:58:33;9.27;;;5.83;;
13439;SDS011;6792;57.698;11.946;2023-11-21T01:01:02;7.73;;;5.23;;
13439;SDS011;6792;57.698;11.946;2023-11-21T01:03:31;8.10;;;5.97;;
13439;SDS011;6792;57.698;11.946;2023-11-21T01:06:00;6.13;;;4.73;;
13439;SDS011;6792;57.698;11.946;2023-11-21T01:08:31;8.27;;;5.67;;
13439;SDS011;6792;57.698;11.946;2023-11-21T01:11:00;8.17;;;5.57;;
13439;SDS011;6792;57.698;11.946;2023-11-21T01:13:29;7.43;;;5.63;;
13439;SDS011;6792;57.698;11.946;2023-11-21T01:15:58;8.33;;;5.30;;
13439;SDS011;6792;57.698;11.946;2023-11-21T01:18:27;7.13;;;5.17;;
13439;SDS011;6792;57.698;11.946;2023-11-21T01:20:57;6.07;;;4.80;;
13439;SDS011;6792;57.698;11.946;2023-11-21T01:23:26;9.63;;;5.00;;
13439;SDS011;6792;57.698;11.946;2023-11-21T01:25:56;7.23;;;5.30;;
13439;SDS011;6792;57.698;11.946;2023-11-21T01:28:25;7.23;;;5.33;;
13439;SDS011;6792;57.698;11.946;2023-11-21T01:30:54;8.40;;;5.67;;
13439;SDS011;6792;57.698;11.946;2023-11-21T01:33:24;7.73;;;5.37;;
13439;SDS011;6792;57.698;11.946;2023-11-21T01:35:53;7.03;;;5.20;;
13439;SDS011;6792;57.698;11.946;2023-11-21T01:38:22;6.97;;;5.40;;
13439;SDS011;6792;57.698;11.946;2023-11-21T01:40:51;7.87;;;5.17;;
13439;SDS011;6792;57.698;11.946;2023-11-21T01:43:21;7.53;;;5.10;;
13439;SDS011;6792;57.698;11.946;2023-11-21T01:45:50;8.27;;;5.70;;
13439;SDS011;6792;57.698;11.946;2023-11-21T01:48:19;7.47;;;5.40;;
13439;SDS011;6792;57.698;11.946;2023-11-21T01:50:48;8.97;;;5.63;;
13439;SDS011;6792;57.698;11.946;2023-11-21T01:53:17;8.70;;;5.53;;
13439;SDS011;6792;57.698;11.946;2023-11-21T01:55:47;7.13;;;5.27;;
13439;SDS011;6792;57.698;11.946;2023-11-21T01:58:16;7.20;;;5.43;;
13439;SDS011;6792;57.698;11.946;2023-11-21T02:00:45;7.07;;;5.40;;
13439;SDS011;6792;57.698;11.946;2023-11-21T02:03:18;6.57;;;5.17;;
13439;SDS011;6792;57.698;11.946;2023-11-21T02:05:47;6.70;;;5.10;;
13439;SDS011;6792;57.698;11.946;2023-11-21T02:08:16;8.47;;;5.37;;
13439;SDS011;6792;57.698;11.946;2023-11-21T02:10:45;11.47;;;4.83;;
13439;SDS011;6792;57.698;11.946;2023-11-21T02:13:15;6.87;;;5.00;;
13439;SDS011;6792;57.698;11.946;2023-11-21T02:15:44;6.87;;;4.97;;
13439;SDS011;6792;57.698;11.946;2023-11-21T02:18:14;8.33;;;5.37;;
13439;SDS011;6792;57.698;11.946;2023-11-21T02:20:44;6.90;;;5.17;;
13439;SDS011;6792;57.698;11.946;2023-11-21T02:23:13;7.57;;;5.13;;
13439;SDS011;6792;57.698;11.946;2023-11-21T02:25:42;9.07;;;5.30;;
13439;SDS011;6792;57.698;11.946;2023-11-21T02:28:11;7.33;;;5.70;;
13439;SDS011;6792;57.698;11.946;2023-11-21T02:30:42;7.37;;;5.07;;
13439;SDS011;6792;57.698;11.946;2023-11-21T02:33:11;6.53;;;5.17;;
13439;SDS011;6792;57.698;11.946;2023-11-21T02:35:40;6.87;;;5.27;;
13439;SDS011;6792;57.698;11.946;2023-11-21T02:38:11;7.07;;;5.00;;
13439;SDS011;6792;57.698;11.946;2023-11-21T02:40:40;7.77;;;5.27;;
13439;SDS011;6792;57.698;11.946;2023-11-21T02:43:10;7.80;;;5.60;;
13439;SDS011;6792;57.698;11.946;2023-11-21T02:45:39;6.93;;;5.13;;
13439;SDS011;6792;57.698;11.946;2023-11-21T02:48:08;8.00;;;5.43;;
13439;SDS011;6792;57.698;11.946;2023-11-21T02:50:38;7.03;;;5.13;;
13439;SDS011;6792;57.698;11.946;2023-11-21T02:53:07;7.90;;;5.20;;
13439;SDS011;6792;57.698;11.946;2023-11-21T02:55:37;8.47;;;5.50;;
13439;SDS011;6792;57.698;11.946;2023-11-21T02:58:06;5.43;;;4.57;;
13439;SDS011;6792;57.698;11.946;2023-11-21T03:00:35;8.07;;;5.50;;
13439;SDS011;6792;57.698;11.946;2023-11-21T03:03:05;7.50;;;5.43;;
13439;SDS011;6792;57.698;11.946;2023-11-21T03:05:35;6.80;;;4.93;;
13439;SDS011;6792;57.698;11.946;2023-11-21T03:08:05;9.17;;;4.87;;
13439;SDS011;6792;57.698;11.946;2023-11-21T03:10:34;8.10;;;5.07;;
13439;SDS011;6792;57.698;11.946;2023-11-21T03:13:03;6.30;;;5.00;;
13439;SDS011;6792;57.698;11.946;2023-11-21T03:15:32;8.43;;;5.30;;
13439;SDS011;6792;57.698;11.946;2023-11-21T03:18:01;7.97;;;4.47;;
13439;SDS011;6792;57.698;11.946;2023-11-21T03:20:31;7.57;;;5.60;;
13439;SDS011;6792;57.698;11.946;2023-11-21T03:23:01;6.03;;;4.53;;
13439;SDS011;6792;57.698;11.946;2023-11-21T03:25:31;8.87;;;5.13;;
13439;SDS011;6792;57.698;11.946;2023-11-21T03:28:00;5.50;;;4.57;;
13439;SDS011;6792;57.698;11.946;2023-11-21T03:30:29;6.23;;;4.40;;
13439;SDS011;6792;57.698;11.946;2023-11-21T03:32:58;6.30;;;4.60;;
13439;SDS011;6792;57.698;11.946;2023-11-21T03:35:27;7.20;;;5.10;;
13439;SDS011;6792;57.698;11.946;2023-11-21T03:37:57;6.43;;;4.83;;
13439;SDS011;6792;57.698;11.946;2023-11-21T03:40:26;6.00;;;4.50;;
13439;SDS011;6792;57.698;11.946;2023-11-21T03:42:55;7.53;;;4.73;;
13439;SDS011;6792;57.698;11.946;2023-11-21T03:45:24;6.17;;;4.60;;
13439;SDS011;6792;57.698;11.946;2023-11-21T03:47:53;6.57;;;4.07;;
13439;SDS011;6792;57.698;11.946;2023-11-21T03:50:22;7.03;;;4.33;;
13439;SDS011;6792;57.698;11.946;2023-11-21T03:52:51;7.90;;;4.70;;
13439;SDS011;6792;57.698;11.946;2023-11-21T03:55:20;6.90;;;4.53;;
13439;SDS011;6792;57.698;11.946;2023-11-21T03:57:51;6.13;;;4.67;;
13439;SDS011;6792;57.698;11.946;2023-11-21T04:00:20;6.73;;;4.67;;
13439;SDS011;6792;57.698;11.946;2023-11-21T04:02:50;6.20;;;4.60;;
13439;SDS011;6792;57.698;11.946;2023-11-21T04:05:19;7.00;;;4.87;;
13439;SDS011;6792;57.698;11.946;2023-11-21T04:07:49;7.93;;;5.20;;
13439;SDS011;6792;57.698;11.946;2023-11-21T04:10:18;5.90;;;4.00;;
13439;SDS011;6792;57.698;11.946;2023-11-21T04:12:48;5.10;;;4.40;;
13439;SDS011;6792;57.698;11.946;2023-11-21T04:15:17;6.17;;;4.20;;
13439;SDS011;6792;57.698;11.946;2023-11-21T04:17:46;6.80;;;5.20;;
13439;SDS011;6792;57.698;11.946;2023-11-21T04:20:15;5.00;;;3.93;;
13439;SDS011;6792;57.698;11.946;2023-11-21T04:22:44;5.87;;;4.10;;
13439;SDS011;6792;57.698;11.946;2023-11-21T04:25:14;5.40;;;4.10;;
13439;SDS011;6792;57.698;11.946;2023-11-21T04:27:44;5.03;;;3.80;;
13439;SDS011;6792;57.698;11.946;2023-11-21T04:30:13;5.67;;;3.87;;
13439;SDS011;6792;57.698;11.946;2023-11-21T04:32:43;6.87;;;4.73;;
13439;SDS011;6792;57.698;11.946;2023-11-21T04:35:12;7.17;;;4.00;;
13439;SDS011;6792;57.698;11.946;2023-11-21T04:37:41;4.80;;;4.20;;
13439;SDS011;6792;57.698;11.946;2023-11-21T04:40:11;5.93;;;4.53;;
13439;SDS011;6792;57.698;11.946;2023-11-21T04:42:40;4.83;;;3.87;;
13439;SDS011;6792;57.698;11.946;2023-11-21T04:45:10;5.00;;;4.23;;
13439;SDS011;6792;57.698;11.946;2023-11-21T04:47:39;5.60;;;3.97;;
13439;SDS011;6792;57.698;11.946;2023-11-21T04:50:08;6.27;;;4.30;;
13439;SDS011;6792;57.698;11.946;2023-11-21T04:52:38;4.83;;;3.73;;
13439;SDS011;6792;57.698;11.946;2023-11-21T04:55:08;4.97;;;3.70;;
13439;SDS011;6792;57.698;11.946;2023-11-21T04:57:37;4.60;;;3.53;;
13439;SDS011;6792;57.698;11.946;2023-11-21T05:00:08;5.57;;;3.70;;
13439;SDS011;6792;57.698;11.946;2023-11-21T05:02:39;4.30;;;3.63;;
13439;SDS011;6792;57.698;11.946;2023-11-21T05:05:09;7.00;;;4.33;;
13439;SDS011;6792;57.698;11.946;2023-11-21T05:07:39;5.63;;;4.07;;
13439;SDS011;6792;57.698;11.946;2023-11-21T05:10:09;5.60;;;3.63;;
13439;SDS011;6792;57.698;11.946;2023-11-21T05:12:41;7.47;;;3.80;;
13439;SDS011;6792;57.698;11.946;2023-11-21T05:15:12;7.03;;;3.77;;
13439;SDS011;6792;57.698;11.946;2023-11-21T05:17:52;6.10;;;3.70;;
13439;SDS011;6792;57.698;11.946;2023-11-21T05:20:21;5.43;;;3.80;;
13439;SDS011;6792;57.698;11.946;2023-11-21T05:22:50;4.43;;;3.80;;
13439;SDS011;6792;57.698;11.946;2023-11-21T05:25:19;5.93;;;4.40;;
13439;SDS011;6792;57.698;11.946;2023-11-21T05:27:48;5.70;;;3.90;;
13439;SDS011;6792;57.698;11.946;2023-11-21T05:30:17;7.10;;;3.63;;
13439;SDS011;6792;57.698;11.946;2023-11-21T05:32:47;5.40;;;3.60;;
13439;SDS011;6792;57.698;11.946;2023-11-21T05:35:16;5.30;;;3.77;;
13439;SDS011;6792;57.698;11.946;2023-11-21T05:37:45;7.03;;;4.00;;
13439;SDS011;6792;57.698;11.946;2023-11-21T05:40:14;5.30;;;3.63;;
13439;SDS011;6792;57.698;11.946;2023-11-21T05:42:44;5.53;;;4.17;;
13439;SDS011;6792;57.698;11.946;2023-11-21T05:45:13;4.67;;;3.93;;
13439;SDS011;6792;57.698;11.946;2023-11-21T05:47:43;4.70;;;3.70;;
13439;SDS011;6792;57.698;11.946;2023-11-21T05:50:13;4.53;;;3.50;;
13439;SDS011;6792;57.698;11.946;2023-11-21T05:52:45;5.67;;;4.00;;
13439;SDS011;6792;57.698;11.946;2023-11-21T05:55:14;4.70;;;3.83;;
13439;SDS011;6792;57.698;11.946;2023-11-21T05:57:44;4.50;;;3.70;;
13439;SDS011;6792;57.698;11.946;2023-11-21T06:00:14;5.27;;;3.37;;
13439;SDS011;6792;57.698;11.946;2023-11-21T06:02:46;5.40;;;3.57;;
13439;SDS011;6792;57.698;11.946;2023-11-21T06:05:17;3.67;;;3.13;;
13439;SDS011;6792;57.698;11.946;2023-11-21T06:07:49;5.87;;;4.00;;
13439;SDS011;6792;57.698;11.946;2023-11-21T06:10:20;4.10;;;3.63;;
13439;SDS011;6792;57.698;11.946;2023-11-21T06:12:50;4.33;;;3.30;;
13439;SDS011;6792;57.698;11.946;2023-11-21T06:15:20;5.27;;;3.33;;
13439;SDS011;6792;57.698;11.946;2023-11-21T06:17:49;4.17;;;3.60;;
13439;SDS011;6792;57.698;11.946;2023-11-21T06:20:19;3.67;;;3.03;;
13439;SDS011;6792;57.698;11.946;2023-11-21T06:22:49;4.23;;;3.30;;
13439;SDS011;6792;57.698;11.946;2023-11-21T06:25:19;5.00;;;3.33;;
13439;SDS011;6792;57.698;11.946;2023-11-21T06:27:49;4.57;;;3.50;;
13439;SDS011;6792;57.698;11.946;2023-11-21T06:30:20;4.97;;;3.47;;
13439;SDS011;6792;57.698;11.946;2023-11-21T06:32:49;4.33;;;3.53;;
13439;SDS011;6792;57.698;11.946;2023-11-21T06:35:19;4.23;;;3.60;;
13439;SDS011;6792;57.698;11.946;2023-11-21T06:37:48;5.30;;;3.53;;
13439;SDS011;6792;57.698;11.946;2023-11-21T06:40:18;4.00;;;3.37;;
13439;SDS011;6792;57.698;11.946;2023-11-21T06:42:47;5.60;;;3.33;;
13439;SDS011;6792;57.698;11.946;2023-11-21T06:45:17;4.90;;;3.30;;
13439;SDS011;6792;57.698;11.946;2023-11-21T06:47:47;3.53;;;3.07;;
13439;SDS011;6792;57.698;11.946;2023-11-21T06:50:17;4.70;;;3.27;;
13439;SDS011;6792;57.698;11.946;2023-11-21T06:52:47;4.27;;;3.10;;
13439;SDS011;6792;57.698;11.946;2023-11-21T06:55:16;6.83;;;4.10;;
13439;SDS011;6792;57.698;11.946;2023-11-21T06:57:45;5.37;;;3.20;;
13439;SDS011;6792;57.698;11.946;2023-11-21T07:00:16;7.97;;;3.77;;
13439;SDS011;6792;57.698;11.946;2023-11-21T07:05:24;6.33;;;3.50;;
13439;SDS011;6792;57.698;11.946;2023-11-21T07:07:53;8.00;;;3.83;;
13439;SDS011;6792;57.698;11.946;2023-11-21T07:10:23;5.27;;;3.50;;
13439;SDS011;6792;57.698;11.946;2023-11-21T07:12:52;5.97;;;3.30;;
13439;SDS011;6792;57.698;11.946;2023-11-21T07:15:24;7.00;;;4.17;;
13439;SDS011;6792;57.698;11.946;2023-11-21T07:17:53;5.40;;;3.70;;
13439;SDS011;6792;57.698;11.946;2023-11-21T07:20:22;5.20;;;3.63;;
13439;SDS011;6792;57.698;11.946;2023-11-21T07:22:51;4.23;;;3.53;;
13439;SDS011;6792;57.698;11.946;2023-11-21T07:25:20;5.77;;;3.27;;
13439;SDS011;6792;57.698;11.946;2023-11-21T07:27:49;6.60;;;4.00;;
13439;SDS011;6792;57.698;11.946;2023-11-21T07:30:19;13.70;;;4.57;;
13439;SDS011;6792;57.698;11.946;2023-11-21T07:32:48;5.57;;;3.33;;
13439;SDS011;6792;57.698;11.946;2023-11-21T07:35:18;5.50;;;3.67;;
13439;SDS011;6792;57.698;11.946;2023-11-21T07:37:47;6.43;;;3.37;;
13439;SDS011;6792;57.698;11.946;2023-11-21T07:40:17;6.47;;;3.67;;
13439;SDS011;6792;57.698;11.946;2023-11-21T07:42:46;9.17;;;4.17;;
13439;SDS011;6792;57.698;11.946;2023-11-21T07:45:16;6.20;;;3.50;;
13439;SDS011;6792;57.698;11.946;2023-11-21T07:47:45;5.90;;;3.93;;
13439;SDS011;6792;57.698;11.946;2023-11-21T07:50:15;9.67;;;3.93;;
13439;SDS011;6792;57.698;11.946;2023-11-21T07:52:44;6.33;;;3.87;;
13439;SDS011;6792;57.698;11.946;2023-11-21T07:55:13;11.77;;;4.17;;
13439;SDS011;6792;57.698;11.946;2023-11-21T07:57:42;6.00;;;3.23;;
13439;SDS011;6792;57.698;11.946;2023-11-21T08:00:12;4.30;;;3.23;;
13439;SDS011;6792;57.698;11.946;2023-11-21T08:02:42;6.20;;;3.77;;
13439;SDS011;6792;57.698;11.946;2023-11-21T08:05:12;7.17;;;4.17;;
13439;SDS011;6792;57.698;11.946;2023-11-21T08:07:41;4.73;;;3.77;;
13439;SDS011;6792;57.698;11.946;2023-11-21T08:10:10;5.50;;;3.77;;
13439;SDS011;6792;57.698;11.946;2023-11-21T08:12:40;5.53;;;3.33;;
13439;SDS011;6792;57.698;11.946;2023-11-21T08:15:09;6.73;;;3.93;;
13439;SDS011;6792;57.698;11.946;2023-11-21T08:17:39;17.73;;;8.23;;
13439;SDS011;6792;57.698;11.946;2023-11-21T08:20:10;12.47;;;7.20;;
13439;SDS011;6792;57.698;11.946;2023-11-21T08:22:41;6.97;;;4.50;;
13439;SDS011;6792;57.698;11.946;2023-11-21T08:25:11;7.20;;;4.47;;
13439;SDS011;6792;57.698;11.946;2023-11-21T08:27:40;6.33;;;4.00;;
13439;SDS011;6792;57.698;11.946;2023-11-21T08:30:11;4.23;;;3.27;;
13439;SDS011;6792;57.698;11.946;2023-11-21T08:32:42;6.43;;;3.80;;
13439;SDS011;6792;57.698;11.946;2023-11-21T08:35:12;12.47;;;6.20;;
13439;SDS011;6792;57.698;11.946;2023-11-21T08:37:42;21.17;;;10.17;;
13439;SDS011;6792;57.698;11.946;2023-11-21T08:40:11;12.40;;;7.63;;
13439;SDS011;6792;57.698;11.946;2023-11-21T08:42:42;7.07;;;4.17;;
13439;SDS011;6792;57.698;11.946;2023-11-21T08:45:12;5.80;;;3.87;;
13439;SDS011;6792;57.698;11.946;2023-11-21T08:47:43;7.87;;;3.73;;
13439;SDS011;6792;57.698;11.946;2023-11-21T08:50:12;5.20;;;3.47;;
13439;SDS011;6792;57.698;11.946;2023-11-21T08:52:42;7.10;;;4.00;;
13439;SDS011;6792;57.698;11.946;2023-11-21T08:55:13;10.07;;;5.23;;
13439;SDS011;6792;57.698;11.946;2023-11-21T08:57:43;11.03;;;5.90;;
13439;SDS011;6792;57.698;11.946;2023-11-21T09:00:13;9.77;;;5.27;;
13439;SDS011;6792;57.698;11.946;2023-11-21T09:02:43;7.03;;;4.13;;
13439;SDS011;6792;57.698;11.946;2023-11-21T09:05:13;5.60;;;3.60;;
13439;SDS011;6792;57.698;11.946;2023-11-21T09:07:43;6.57;;;4.33;;
13439;SDS011;6792;57.698;11.946;2023-11-21T09:10:15;6.83;;;4.50;;
13439;SDS011;6792;57.698;11.946;2023-11-21T09:12:44;11.40;;;4.70;;
13439;SDS011;6792;57.698;11.946;2023-11-21T09:15:24;7.77;;;5.30;;
13439;SDS011;6792;57.698;11.946;2023-11-21T09:17:54;10.77;;;4.90;;
13439;SDS011;6792;57.698;11.946;2023-11-21T09:20:23;6.77;;;4.20;;
13439;SDS011;6792;57.698;11.946;2023-11-21T09:22:52;9.40;;;4.83;;
13439;SDS011;6792;57.698;11.946;2023-11-21T09:25:21;7.23;;;4.53;;
13439;SDS011;6792;57.698;11.946;2023-11-21T09:27:51;8.47;;;4.93;;
13439;SDS011;6792;57.698;11.946;2023-11-21T09:30:20;7.03;;;4.07;;
13439;SDS011;6792;57.698;11.946;2023-11-21T09:32:51;7.97;;;4.27;;
13439;SDS011;6792;57.698;11.946;2023-11-21T09:35:20;5.33;;;3.43;;
13439;SDS011;6792;57.698;11.946;2023-11-21T09:37:50;7.53;;;4.50;;
13439;SDS011;6792;57.698;11.946;2023-11-21T09:40:20;5.97;;;4.10;;
13439;SDS011;6792;57.698;11.946;2023-11-21T09:42:51;5.93;;;3.80;;
13439;SDS011;6792;57.698;11.946;2023-11-21T09:45:25;6.80;;;3.33;;
13439;SDS011;6792;57.698;11.946;2023-11-21T09:47:55;4.63;;;3.37;;
13439;SDS011;6792;57.698;11.946;2023-11-21T09:50:25;7.30;;;3.70;;
13439;SDS011;6792;57.698;11.946;2023-11-21T09:52:57;4.60;;;3.53;;
13439;SDS011;6792;57.698;11.946;2023-11-21T09:55:27;5.33;;;3.60;;
13439;SDS011;6792;57.698;11.946;2023-11-21T09:57:59;5.67;;;3.93;;
13439;SDS011;6792;57.698;11.946;2023-11-21T10:00:28;7.40;;;3.97;;
13439;SDS011;6792;57.698;11.946;2023-11-21T10:03:00;6.90;;;3.30;;
13439;SDS011;6792;57.698;11.946;2023-11-21T10:05:30;6.90;;;4.10;;
13439;SDS011;6792;57.698;11.946;2023-11-21T10:08:00;9.63;;;4.67;;
13439;SDS011;6792;57.698;11.946;2023-11-21T10:10:32;7.53;;;3.70;;
13439;SDS011;6792;57.698;11.946;2023-11-21T10:13:02;6.43;;;3.80;;
13439;SDS011;6792;57.698;11.946;2023-11-21T10:15:34;5.60;;;3.47;;
13439;SDS011;6792;57.698;11.946;2023-11-21T10:18:05;8.07;;;3.30;;
13439;SDS011;6792;57.698;11.946;2023-11-21T10:20:36;5.60;;;3.30;;
13439;SDS011;6792;57.698;11.946;2023-11-21T10:23:05;5.50;;;3.20;;
13439;SDS011;6792;57.698;11.946;2023-11-21T10:25:37;3.50;;;2.60;;
13439;SDS011;6792;57.698;11.946;2023-11-21T10:28:06;4.50;;;3.33;;
13439;SDS011;6792;57.698;11.946;2023-11-21T10:30:37;4.27;;;3.57;;
13439;SDS011;6792;57.698;11.946;2023-11-21T10:33:07;4.43;;;3.00;;
13439;SDS011;6792;57.698;11.946;2023-11-21T10:35:43;5.77;;;2.90;;
13439;SDS011;6792;57.698;11.946;2023-11-21T10:38:13;5.63;;;3.07;;
13439;SDS011;6792;57.698;11.946;2023-11-21T10:40:42;4.83;;;2.73;;
13439;SDS011;6792;57.698;11.946;2023-11-21T10:43:13;4.10;;;3.23;;
13439;SDS011;6792;57.698;11.946;2023-11-21T10:45:42;4.40;;;2.77;;
13439;SDS011;6792;57.698;11.946;2023-11-21T10:48:12;4.07;;;2.90;;
13439;SDS011;6792;57.698;11.946;2023-11-21T10:50:43;3.33;;;2.40;;
13439;SDS011;6792;57.698;11.946;2023-11-21T10:53:14;3.20;;;2.80;;
13439;SDS011;6792;57.698;11.946;2023-11-21T10:55:43;4.20;;;2.83;;
13439;SDS011;6792;57.698;11.946;2023-11-21T10:58:13;9.73;;;3.07;;
13439;SDS011;6792;57.698;11.946;2023-11-21T11:00:43;3.43;;;2.97;;
13439;SDS011;6792;57.698;11.946;2023-11-21T11:03:13;5.37;;;2.97;;
13439;SDS011;6792;57.698;11.946;2023-11-21T11:05:43;3.87;;;2.60;;
13439;SDS011;6792;57.698;11.946;2023-11-21T11:08:15;4.83;;;2.70;;
13439;SDS011;6792;57.698;11.946;2023-11-21T11:10:46;8.60;;;3.13;;
13439;SDS011;6792;57.698;11.946;2023-11-21T11:13:16;3.30;;;2.50;;
13439;SDS011;6792;57.698;11.946;2023-11-21T11:15:47;4.13;;;2.70;;
13439;SDS011;6792;57.698;11.946;2023-11-21T11:18:17;8.90;;;2.80;;
13439;SDS011;6792;57.698;11.946;2023-11-21T11:20:48;3.63;;;2.87;;
13439;SDS011;6792;57.698;11.946;2023-11-21T11:23:37;7.47;;;2.50;;
13439;SDS011;6792;57.698;11.946;2023-11-21T11:26:04;4.53;;;2.50;;
13439;SDS011;6792;57.698;11.946;2023-11-21T11:28:38;6.10;;;2.80;;
13439;SDS011;6792;57.698;11.946;2023-11-21T11:31:13;3.87;;;2.50;;
13439;SDS011;6792;57.698;11.946;2023-11-21T11:33:53;3.03;;;2.40;;
13439;SDS011;6792;57.698;11.946;2023-11-21T11:39:27;4.20;;;2.77;;
13439;SDS011;6792;57.698;11.946;2023-11-21T11:41:57;2.93;;;2.20;;
13439;SDS011;6792;57.698;11.946;2023-11-21T11:47:41;8.30;;;2.47;;
13439;SDS011;6792;57.698;11.946;2023-11-21T11:50:11;7.37;;;3.17;;
13439;SDS011;6792;57.698;11.946;2023-11-21T11:52:42;4.33;;;2.90;;
13439;SDS011;6792;57.698;11.946;2023-11-21T11:55:13;2.90;;;2.60;;
13439;SDS011;6792;57.698;11.946;2023-11-21T11:57:45;4.57;;;2.90;;
13439;SDS011;6792;57.698;11.946;2023-11-21T12:00:17;5.00;;;3.07;;
13439;SDS011;6792;57.698;11.946;2023-11-21T12:02:48;4.43;;;2.50;;
13439;SDS011;6792;57.698;11.946;2023-11-21T12:05:19;4.20;;;2.37;;
13439;SDS011;6792;57.698;11.946;2023-11-21T12:07:50;5.90;;;2.57;;
13439;SDS011;6792;57.698;11.946;2023-11-21T12:10:20;5.30;;;2.73;;
13439;SDS011;6792;57.698;11.946;2023-11-21T12:12:52;7.20;;;2.83;;
13439;SDS011;6792;57.698;11.946;2023-11-21T12:15:22;2.40;;;2.10;;
13439;SDS011;6792;57.698;11.946;2023-11-21T12:17:52;4.60;;;2.70;;
13439;SDS011;6792;57.698;11.946;2023-11-21T12:20:22;7.37;;;2.50;;
13439;SDS011;6792;57.698;11.946;2023-11-21T12:22:52;3.33;;;2.00;;
13439;SDS011;6792;57.698;11.946;2023-11-21T12:25:22;5.23;;;2.57;;
13439;SDS011;6792;57.698;11.946;2023-11-21T12:27:54;3.63;;;2.30;;
13439;SDS011;6792;57.698;11.946;2023-11-21T12:30:24;4.33;;;2.77;;
13439;SDS011;6792;57.698;11.946;2023-11-21T12:32:57;4.80;;;3.07;;
13439;SDS011;6792;57.698;11.946;2023-11-21T12:35:28;2.97;;;2.30;;
13439;SDS011;6792;57.698;11.946;2023-11-21T12:38:00;3.33;;;2.40;;
13439;SDS011;6792;57.698;11.946;2023-11-21T12:40:31;4.63;;;2.33;;
13439;SDS011;6792;57.698;11.946;2023-11-21T12:43:00;3.83;;;2.60;;
13439;SDS011;6792;57.698;11.946;2023-11-21T12:45:30;3.67;;;2.53;;
13439;SDS011;6792;57.698;11.946;2023-11-21T12:48:00;4.00;;;2.73;;
13439;SDS011;6792;57.698;11.946;2023-11-21T12:50:32;3.43;;;2.70;;
13439;SDS011;6792;57.698;11.946;2023-11-21T12:53:03;8.17;;;2.77;;
13439;SDS011;6792;57.698;11.946;2023-11-21T12:55:35;3.80;;;2.53;;
13439;SDS011;6792;57.698;11.946;2023-11-21T12:58:04;8.17;;;2.60;;
13439;SDS011;6792;57.698;11.946;2023-11-21T13:00:37;6.73;;;2.43;;
13439;SDS011;6792;57.698;11.946;2023-11-21T13:03:10;2.87;;;2.40;;
13439;SDS011;6792;57.698;11.946;2023-11-21T13:05:41;2.60;;;1.93;;
13439;SDS011;6792;57.698;11.946;2023-11-21T13:08:11;3.80;;;2.43;;
13439;SDS011;6792;57.698;11.946;2023-11-21T13:10:43;5.80;;;2.40;;
13439;SDS011;6792;57.698;11.946;2023-11-21T13:13:13;6.50;;;2.37;;
13439;SDS011;6792;57.698;11.946;2023-11-21T13:15:48;7.33;;;2.47;;
13439;SDS011;6792;57.698;11.946;2023-11-21T13:18:17;4.87;;;2.47;;
13439;SDS011;6792;57.698;11.946;2023-11-21T13:20:48;5.40;;;2.23;;
13439;SDS011;6792;57.698;11.946;2023-11-21T13:23:17;3.67;;;2.37;;
13439;SDS011;6792;57.698;11.946;2023-11-21T13:25:46;4.33;;;2.37;;
13439;SDS011;6792;57.698;11.946;2023-11-21T13:28:16;3.67;;;2.10;;
13439;SDS011;6792;57.698;11.946;2023-11-21T13:30:47;6.87;;;2.17;;
13439;SDS011;6792;57.698;11.946;2023-11-21T13:33:18;3.40;;;2.03;;
13439;SDS011;6792;57.698;11.946;2023-11-21T13:35:50;5.33;;;2.40;;
13439;SDS011;6792;57.698;11.946;2023-11-21T13:38:19;7.27;;;2.40;;
13439;SDS011;6792;57.698;11.946;2023-11-21T13:40:49;4.93;;;2.13;;
13439;SDS011;6792;57.698;11.946;2023-11-21T13:43:20;4.27;;;2.47;;
13439;SDS011;6792;57.698;11.946;2023-11-21T13:45:52;4.63;;;2.43;;
13439;SDS011;6792;57.698;11.946;2023-11-21T13:48:25;3.07;;;2.60;;
13439;SDS011;6792;57.698;11.946;2023-11-21T13:50:57;4.27;;;2.17;;
13439;SDS011;6792;57.698;11.946;2023-11-21T13:53:28;2.20;;;2.00;;
13439;SDS011;6792;57.698;11.946;2023-11-21T13:55:56;2.93;;;2.50;;
13439;SDS011;6792;57.698;11.946;2023-11-21T13:58:26;3.73;;;2.30;;
13439;SDS011;6792;57.698;11.946;2023-11-21T14:00:56;4.93;;;2.70;;
13439;SDS011;6792;57.698;11.946;2023-11-21T14:03:25;3.70;;;2.10;;
13439;SDS011;6792;57.698;11.946;2023-11-21T14:06:01;2.70;;;2.10;;
13439;SDS011;6792;57.698;11.946;2023-11-21T14:08:32;4.87;;;1.60;;
13439;SDS011;6792;57.698;11.946;2023-11-21T14:11:01;4.87;;;1.70;;
13439;SDS011;6792;57.698;11.946;2023-11-21T14:13:32;2.90;;;1.83;;
13439;SDS011;6792;57.698;11.946;2023-11-21T14:16:01;4.77;;;1.83;;
13439;SDS011;6792;57.698;11.946;2023-11-21T14:18:32;4.20;;;2.43;;
13439;SDS011;6792;57.698;11.946;2023-11-21T14:21:03;1.80;;;1.70;;
13439;SDS011;6792;57.698;11.946;2023-11-21T14:23:32;7.73;;;1.87;;
13439;SDS011;6792;57.698;11.946;2023-11-21T14:26:02;2.00;;;1.70;;
13439;SDS011;6792;57.698;11.946;2023-11-21T14:28:32;2.77;;;2.20;;
13439;SDS011;6792;57.698;11.946;2023-11-21T14:31:02;3.07;;;2.40;;
13439;SDS011;6792;57.698;11.946;2023-11-21T14:33:32;4.33;;;2.00;;
13439;SDS011;6792;57.698;11.946;2023-11-21T14:36:01;2.47;;;1.90;;
13439;SDS011;6792;57.698;11.946;2023-11-21T14:38:30;2.00;;;1.90;;
13439;SDS011;6792;57.698;11.946;2023-11-21T14:40:59;2.37;;;1.90;;
13439;SDS011;6792;57.698;11.946;2023-11-21T14:43:28;3.33;;;1.90;;
13439;SDS011;6792;57.698;11.946;2023-11-21T14:45:59;2.20;;;1.77;;
13439;SDS011;6792;57.698;11.946;2023-11-21T14:48:29;3.20;;;2.30;;
13439;SDS011;6792;57.698;11.946;2023-11-21T14:51:02;3.83;;;2.00;;
13439;SDS011;6792;57.698;11.946;2023-11-21T14:53:54;4.17;;;2.57;;
13439;SDS011;6792;57.698;11.946;2023-11-21T14:56:25;3.07;;;1.90;;
13439;SDS011;6792;57.698;11.946;2023-11-21T14:58:57;4.23;;;2.00;;
13439;SDS011;6792;57.698;11.946;2023-11-21T15:01:30;5.43;;;2.60;;
13439;SDS011;6792;57.698;11.946;2023-11-21T15:04:05;2.23;;;2.03;;
13439;SDS011;6792;57.698;11.946;2023-11-21T15:06:36;8.23;;;2.50;;
13439;SDS011;6792;57.698;11.946;2023-11-21T15:09:06;3.03;;;1.83;;
13439;SDS011;6792;57.698;11.946;2023-11-21T15:11:54;4.03;;;2.10;;
13439;SDS011;6792;57.698;11.946;2023-11-21T15:14:25;5.23;;;2.40;;